HSOB

Details ICAO HSOB (EBD)
Name EL OBEID
Region Sudan and South Sudan
Timezone Africa/Khartoum (UTC+2.0)
Plans Departing 11
Arriving 15
Stats Elevation 1,927 ft / 587 m (AMSL)
Location 13.153142° 30.232750°
Runways 1
Magnetic Variation 3.229° E
Sunrise 2018-05-21 03:33:44 UTC / 2018-05-21 05:33:44 Local
Sunset 2018-05-21 16:20:25 UTC / 2018-05-21 18:20:25 Local
Advertisement - Login to hide

Runways

ID Width Length Bearing (true) Bearing (mag) Surface Threshold Offset Overrun Length
01 148 ft / 45 m 9,846 ft / 3,001 m 8.30° 5.07° Asphalt 0 ft / 0 m 0 ft / 0 m
19 148 ft / 45 m 9,846 ft / 3,001 m 188.30° 185.07° Asphalt 0 ft / 0 m 0 ft / 0 m

Map

Weather


0- 5 10 15 20 25 30 35+ Temperature / ° C

Clouds and Precipitation
Forecast for 2018-05-21 12:00 UTC. Updated 2 minutes ago

Ground ~20,000 ft ~40,000 ft Winds

METAR

Not found

TAF

TAF HSOB 202300Z 2100/2206 36006G16KT CAVOK PROB30 TEMPO 2103/2106 6000 NSC TEMPO 2112/2118 4000 DU

Frequencies

Tower 118.50 MHz TWR/APP
Warning: Do not use this data for real-world aviation or navigation. No guarantee of current accuracy is given.